createdAt,value
2023-02-02T00:03:24.669Z,1019.4
2023-02-02T00:09:30.461Z,1019.4
2023-02-02T00:15:36.217Z,1019.3
2023-02-02T00:21:41.999Z,1019.2
2023-02-02T00:27:47.070Z,1019.4
2023-02-02T00:33:53.033Z,1019.3
2023-02-02T00:39:57.983Z,1019.2
2023-02-02T00:46:03.729Z,1019.2
2023-02-02T00:52:09.677Z,1019.1
2023-02-02T00:58:15.236Z,1019.2
2023-02-02T01:04:21.002Z,1019.3
2023-02-02T01:10:26.981Z,1019.2
2023-02-02T01:16:32.692Z,1019.3
2023-02-02T01:22:38.960Z,1019.3
2023-02-02T01:28:45.199Z,1019.3
2023-02-02T01:34:51.320Z,1019.2
2023-02-02T01:40:57.116Z,1019.1
2023-02-02T01:47:02.884Z,1019.1
2023-02-02T01:53:09.241Z,1019
2023-02-02T01:59:14.831Z,1019.1
2023-02-02T02:05:20.996Z,1019
2023-02-02T02:11:27.007Z,1019
2023-02-02T02:17:32.641Z,1019
2023-02-02T02:23:37.954Z,1019.1
2023-02-02T02:29:43.496Z,1019
2023-02-02T02:35:49.076Z,1018.9
2023-02-02T02:41:55.086Z,1018.8
2023-02-02T02:48:00.634Z,1018.8
2023-02-02T02:54:05.859Z,1018.8
2023-02-02T03:00:11.355Z,1018.8
2023-02-02T03:06:16.983Z,1018.8
2023-02-02T03:12:22.719Z,1018.9
2023-02-02T03:18:28.375Z,1019
2023-02-02T03:24:34.144Z,1018.8
2023-02-02T03:30:39.928Z,1018.8
2023-02-02T03:36:45.689Z,1018.9
2023-02-02T03:42:51.277Z,1019
2023-02-02T03:48:56.758Z,1019
2023-02-02T03:55:02.229Z,1019.1
2023-02-02T04:01:07.705Z,1019.1
2023-02-02T04:07:13.891Z,1019.1
2023-02-02T04:13:19.449Z,1019
2023-02-02T04:19:25.004Z,1019.1
2023-02-02T04:25:30.813Z,1019
2023-02-02T04:31:36.607Z,1019.1
2023-02-02T04:37:42.551Z,1019
2023-02-02T04:43:48.543Z,1019.2
2023-02-02T04:49:54.411Z,1019.1
2023-02-02T04:55:59.953Z,1019.3
2023-02-02T05:02:06.080Z,1019
2023-02-02T05:08:12.132Z,1019.1
2023-02-02T05:14:18.113Z,1019.3
2023-02-02T05:20:23.479Z,1019.4
2023-02-02T05:26:29.033Z,1019.3
2023-02-02T05:32:34.755Z,1019.5
2023-02-02T05:38:39.591Z,1019.3
2023-02-02T05:44:45.521Z,1019.4
2023-02-02T05:50:51.693Z,1019.4
2023-02-02T05:56:57.646Z,1019.4
2023-02-02T06:03:03.186Z,1019.4
2023-02-02T06:09:08.589Z,1019.6
2023-02-02T06:15:14.374Z,1019.6
2023-02-02T06:21:20.349Z,1019.6
2023-02-02T06:27:25.936Z,1019.5
2023-02-02T06:33:32.319Z,1019.6
2023-02-02T06:39:37.550Z,1019.5
2023-02-02T06:45:42.536Z,1019.6
2023-02-02T06:51:47.657Z,1019.5
2023-02-02T06:57:53.362Z,1019.6
2023-02-02T07:03:59.372Z,1019.7
2023-02-02T07:10:05.137Z,1019.8
2023-02-02T07:16:11.069Z,1019.8
2023-02-02T07:22:16.683Z,1019.9
2023-02-02T07:28:22.869Z,1019.9
2023-02-02T07:34:28.440Z,1020
2023-02-02T07:40:34.446Z,1020.1
2023-02-02T07:46:40.648Z,1020.3
2023-02-02T07:52:46.597Z,1020.1
2023-02-02T07:58:52.356Z,1020.3
2023-02-02T08:04:57.606Z,1020.4
2023-02-02T08:11:05.149Z,1020.4
2023-02-02T08:17:11.323Z,1020.5
2023-02-02T08:23:17.332Z,1020.7
2023-02-02T08:29:22.954Z,1020.7
2023-02-02T08:35:28.741Z,1020.9
2023-02-02T08:41:34.347Z,1020.7
2023-02-02T08:47:40.417Z,1020.9
2023-02-02T08:53:46.443Z,1020.9
2023-02-02T08:59:52.390Z,1020.8
2023-02-02T09:05:58.160Z,1020.9
2023-02-02T09:12:03.387Z,1020.9
2023-02-02T09:18:09.117Z,1021
2023-02-02T09:24:14.968Z,1021.1
2023-02-02T09:30:21.055Z,1021.1
2023-02-02T09:36:27.021Z,1021.1
2023-02-02T09:42:32.811Z,1021.1
2023-02-02T09:48:38.784Z,1021
2023-02-02T09:54:44.444Z,1021.1
2023-02-02T10:00:50.765Z,1021.2
2023-02-02T10:06:56.526Z,1021.3
2023-02-02T10:13:02.588Z,1021.2
2023-02-02T10:19:08.281Z,1021.3
2023-02-02T10:25:14.288Z,1021.2
2023-02-02T10:31:20.951Z,1021.2
2023-02-02T10:37:27.273Z,1021.2
2023-02-02T10:43:33.043Z,1021.2
2023-02-02T10:49:38.712Z,1021
2023-02-02T10:55:44.433Z,1021.1
2023-02-02T11:01:50.210Z,1021
2023-02-02T11:07:55.188Z,1020.9
2023-02-02T11:14:00.527Z,1020.9
2023-02-02T11:20:06.124Z,1020.9
2023-02-02T11:26:12.037Z,1021
2023-02-02T11:32:17.688Z,1020.8
2023-02-02T11:38:23.187Z,1020.8
2023-02-02T11:44:28.834Z,1020.8
2023-02-02T11:50:34.407Z,1020.9
2023-02-02T11:56:40.025Z,1020.9
2023-02-02T12:02:46.076Z,1021
2023-02-02T12:08:51.460Z,1020.7
2023-02-02T12:14:57.869Z,1021
2023-02-02T12:21:04.233Z,1020.8
2023-02-02T12:27:10.083Z,1021
2023-02-02T12:33:15.995Z,1020.9
2023-02-02T12:39:21.966Z,1020.7
2023-02-02T12:45:27.873Z,1020.9
2023-02-02T12:51:33.793Z,1020.9
2023-02-02T12:57:39.526Z,1021.1
2023-02-02T13:03:45.477Z,1021
2023-02-02T13:09:51.246Z,1021.1
2023-02-02T13:15:57.043Z,1021.2
2023-02-02T13:22:03.038Z,1021.4
2023-02-02T13:28:08.607Z,1021.4
2023-02-02T13:34:14.473Z,1021.4
2023-02-02T13:40:20.363Z,1021.5
2023-02-02T13:46:26.801Z,1021.7
2023-02-02T13:52:32.521Z,1021.8
2023-02-02T13:58:38.710Z,1021.7
2023-02-02T14:04:44.889Z,1021.8
2023-02-02T14:10:50.530Z,1021.8
2023-02-02T14:16:56.318Z,1021.8
2023-02-02T14:23:02.467Z,1021.9
2023-02-02T14:29:08.268Z,1021.9
2023-02-02T14:35:14.455Z,1021.9
2023-02-02T14:41:20.632Z,1022
2023-02-02T14:47:26.361Z,1022
2023-02-02T14:53:32.541Z,1022
2023-02-02T14:59:38.546Z,1021.9
2023-02-02T15:05:44.928Z,1022
2023-02-02T15:11:50.879Z,1022
2023-02-02T15:17:56.466Z,1022
2023-02-02T15:24:05.528Z,1022.2
2023-02-02T15:30:11.529Z,1022.2
2023-02-02T15:36:19.940Z,1022.3
2023-02-02T15:42:25.721Z,1022.5
2023-02-02T15:48:32.132Z,1022.4
2023-02-02T15:54:38.080Z,1022.6
2023-02-02T16:00:44.104Z,1022.7
2023-02-02T16:06:50.041Z,1022.7
2023-02-02T16:12:56.043Z,1022.8
2023-02-02T16:19:01.810Z,1023
2023-02-02T16:25:07.590Z,1023
2023-02-02T16:31:13.518Z,1023
2023-02-02T16:37:19.437Z,1023.2
2023-02-02T16:43:25.515Z,1023.2
2023-02-02T16:49:31.729Z,1023.3
2023-02-02T16:55:52.413Z,1023.4
2023-02-02T17:01:59.182Z,1023.5
2023-02-02T17:08:05.732Z,1023.6
2023-02-02T17:14:11.594Z,1023.7
2023-02-02T17:20:17.391Z,1023.6
2023-02-02T17:26:23.424Z,1023.8
2023-02-02T17:32:29.001Z,1023.8
2023-02-02T17:38:34.602Z,1023.9
2023-02-02T17:44:40.286Z,1023.9
2023-02-02T17:50:46.086Z,1024
2023-02-02T17:56:52.471Z,1024
2023-02-02T18:02:59.110Z,1024.1
2023-02-02T18:09:04.851Z,1024.2
2023-02-02T18:15:12.046Z,1024.3
2023-02-02T18:21:17.406Z,1024.4
2023-02-02T18:27:23.801Z,1024.4
2023-02-02T18:33:29.605Z,1024.6
2023-02-02T18:39:35.604Z,1024.6
2023-02-02T18:45:41.113Z,1024.9
2023-02-02T18:51:47.324Z,1024.8
2023-02-02T18:57:53.503Z,1024.8
2023-02-02T19:03:59.633Z,1024.7
2023-02-02T19:10:05.929Z,1024.8
2023-02-02T19:16:11.898Z,1024.8
2023-02-02T19:22:18.045Z,1025
2023-02-02T19:28:24.235Z,1024.9
2023-02-02T19:34:30.034Z,1024.9
2023-02-02T19:40:35.778Z,1025
2023-02-02T19:46:42.064Z,1025.2
2023-02-02T19:52:47.434Z,1025.1
2023-02-02T19:58:52.922Z,1025.1
2023-02-02T20:04:59.114Z,1025.3
2023-02-02T20:11:05.491Z,1025.3
2023-02-02T20:17:11.918Z,1025.5
2023-02-02T20:23:18.063Z,1025.4
2023-02-02T20:29:24.247Z,1025.5
2023-02-02T20:35:30.237Z,1025.7
2023-02-02T20:41:36.215Z,1025.6
2023-02-02T20:47:41.581Z,1025.5
2023-02-02T20:53:47.761Z,1025.6
2023-02-02T20:59:53.931Z,1025.6
2023-02-02T21:05:59.968Z,1025.6
2023-02-02T21:12:05.719Z,1025.7
2023-02-02T21:18:11.686Z,1025.7
2023-02-02T21:24:18.114Z,1025.7
2023-02-02T21:30:24.252Z,1025.8
2023-02-02T21:36:31.347Z,1025.8
2023-02-02T21:42:37.470Z,1026
2023-02-02T21:48:43.029Z,1025.9
2023-02-02T21:54:49.015Z,1026
2023-02-02T22:00:55.092Z,1025.9
2023-02-02T22:07:00.980Z,1025.8
2023-02-02T22:13:06.749Z,1025.9
2023-02-02T22:19:12.735Z,1025.9
2023-02-02T22:25:18.950Z,1025.9
2023-02-02T22:31:25.417Z,1026
2023-02-02T22:37:31.497Z,1026
2023-02-02T22:43:37.482Z,1026.1
2023-02-02T22:49:43.161Z,1026.2
2023-02-02T22:55:48.329Z,1026.3
2023-02-02T23:01:54.409Z,1026.3
2023-02-02T23:08:00.569Z,1026.3
2023-02-02T23:14:06.568Z,1026.3
2023-02-02T23:20:12.752Z,1026.3
2023-02-02T23:26:18.959Z,1026.4
2023-02-02T23:32:25.124Z,1026.3
2023-02-02T23:38:30.991Z,1026.2
2023-02-02T23:44:36.660Z,1026.2
2023-02-02T23:50:42.722Z,1026.1
2023-02-02T23:56:48.510Z,1026
